createdAt,value
2019-02-25T00:00:10.087Z,1.73
2019-02-25T00:02:58.779Z,1.74
2019-02-25T00:05:47.288Z,1.71
2019-02-25T00:08:35.359Z,1.65
2019-02-25T00:11:23.795Z,1.60
2019-02-25T00:14:12.171Z,1.59
2019-02-25T00:17:00.693Z,1.57
2019-02-25T00:19:49.422Z,1.53
2019-02-25T00:22:38.439Z,1.52
2019-02-25T00:25:27.117Z,1.51
2019-02-25T00:28:15.055Z,1.53
2019-02-25T00:31:03.684Z,1.53
2019-02-25T00:33:52.205Z,1.41
2019-02-25T00:36:41.066Z,1.37
2019-02-25T00:39:29.752Z,1.27
2019-02-25T00:42:18.507Z,1.24
2019-02-25T00:45:07.283Z,1.24
2019-02-25T00:47:55.851Z,1.24
2019-02-25T00:50:44.925Z,1.27
2019-02-25T00:53:33.818Z,1.26
2019-02-25T00:56:22.315Z,1.14
2019-02-25T00:59:10.498Z,1.10
2019-02-25T01:01:59.045Z,1.12
2019-02-25T01:04:47.651Z,1.15
2019-02-25T01:07:36.291Z,1.19
2019-02-25T01:10:24.921Z,1.21
2019-02-25T01:13:13.138Z,1.18
2019-02-25T01:16:01.960Z,1.18
2019-02-25T01:18:50.528Z,1.12
2019-02-25T01:21:39.041Z,1.10
2019-02-25T01:24:27.351Z,1.12
2019-02-25T01:27:15.639Z,1.11
2019-02-25T01:30:05.887Z,1.12
2019-02-25T01:32:55.643Z,1.13
2019-02-25T01:35:44.726Z,1.09
2019-02-25T01:38:33.259Z,1.08
2019-02-25T01:41:22.108Z,1.10
2019-02-25T01:44:10.787Z,1.11
2019-02-25T01:46:59.589Z,1.12
2019-02-25T01:49:48.217Z,1.10
2019-02-25T01:52:36.984Z,1.10
2019-02-25T01:55:25.587Z,1.09
2019-02-25T01:58:14.543Z,1.07
2019-02-25T02:01:03.598Z,1.07
2019-02-25T02:03:52.554Z,1.06
2019-02-25T02:06:40.983Z,1.06
2019-02-25T02:09:30.089Z,1.04
2019-02-25T02:12:19.099Z,1.04
2019-02-25T02:15:10.673Z,1.02
2019-02-25T02:18:00.031Z,1.04
2019-02-25T02:20:48.772Z,1.02
2019-02-25T02:23:37.582Z,1.03
2019-02-25T02:26:26.356Z,1.04
2019-02-25T02:29:15.261Z,1.03
2019-02-25T02:32:03.755Z,1.02
2019-02-25T02:34:52.826Z,1.02
2019-02-25T02:37:41.656Z,1.00
2019-02-25T02:40:30.446Z,0.98
2019-02-25T02:43:19.352Z,0.97
2019-02-25T02:46:15.705Z,0.98
2019-02-25T02:49:05.270Z,0.98
2019-02-25T02:51:53.586Z,0.99
2019-02-25T02:54:41.797Z,1.01
2019-02-25T02:57:30.457Z,0.97
2019-02-25T03:00:19.568Z,0.93
2019-02-25T03:03:08.269Z,0.90
2019-02-25T03:05:56.874Z,0.89
2019-02-25T03:08:46.644Z,0.87
2019-02-25T03:11:35.672Z,0.86
2019-02-25T03:14:24.009Z,0.84
2019-02-25T03:17:12.615Z,0.84
2019-02-25T03:20:01.390Z,0.80
2019-02-25T03:22:49.946Z,0.83
2019-02-25T03:25:38.682Z,0.85
2019-02-25T03:28:26.978Z,0.85
2019-02-25T03:31:15.489Z,0.81
2019-02-25T03:34:03.662Z,0.80
2019-02-25T03:36:52.231Z,0.76
2019-02-25T03:39:40.857Z,0.74
2019-02-25T03:42:29.541Z,0.73
2019-02-25T03:45:18.712Z,0.70
2019-02-25T03:48:07.036Z,0.67
2019-02-25T03:50:55.795Z,0.65
2019-02-25T03:53:44.083Z,0.64
2019-02-25T03:56:32.571Z,0.60
2019-02-25T03:59:21.628Z,0.58
2019-02-25T04:02:10.135Z,0.57
2019-02-25T04:04:59.008Z,0.62
2019-02-25T04:07:47.660Z,0.61
2019-02-25T04:10:36.375Z,0.59
2019-02-25T04:13:25.279Z,0.58
2019-02-25T04:16:13.386Z,0.58
2019-02-25T04:19:02.351Z,0.55
2019-02-25T04:21:50.468Z,0.54
2019-02-25T04:24:38.902Z,0.54
2019-02-25T04:27:27.500Z,0.53
2019-02-25T04:30:16.384Z,0.54
2019-02-25T04:33:04.799Z,0.51
2019-02-25T04:35:52.844Z,0.53
2019-02-25T04:38:41.310Z,0.53
2019-02-25T04:41:29.878Z,0.51
2019-02-25T04:44:18.492Z,0.50
2019-02-25T04:47:07.376Z,0.48
2019-02-25T04:49:55.816Z,0.47
2019-02-25T04:52:44.032Z,0.45
2019-02-25T04:55:33.166Z,0.42
2019-02-25T04:58:22.062Z,0.38
2019-02-25T05:01:10.710Z,0.39
2019-02-25T05:03:59.256Z,0.39
2019-02-25T05:06:48.082Z,0.36
2019-02-25T05:09:36.202Z,0.35
2019-02-25T05:12:24.626Z,0.36
2019-02-25T05:15:15.377Z,0.36
2019-02-25T05:18:04.338Z,0.32
2019-02-25T05:20:53.148Z,0.32
2019-02-25T05:23:41.976Z,0.27
2019-02-25T05:26:30.408Z,0.23
2019-02-25T05:29:18.857Z,0.20
2019-02-25T05:32:07.182Z,0.22
2019-02-25T05:34:55.830Z,0.21
2019-02-25T05:37:44.552Z,0.21
2019-02-25T05:40:33.393Z,0.20
2019-02-25T05:43:21.722Z,0.21
2019-02-25T05:46:10.445Z,0.23
2019-02-25T05:48:59.058Z,0.23
2019-02-25T05:51:47.976Z,0.21
2019-02-25T05:54:36.415Z,0.23
2019-02-25T05:57:24.544Z,0.20
2019-02-25T06:00:17.816Z,0.21
2019-02-25T06:03:06.849Z,0.18
2019-02-25T06:05:55.892Z,0.17
2019-02-25T06:08:44.714Z,0.16
2019-02-25T06:11:33.801Z,0.19
2019-02-25T06:14:22.142Z,0.22
2019-02-25T06:17:10.133Z,0.23
2019-02-25T06:19:58.832Z,0.23
2019-02-25T06:22:47.558Z,0.26
2019-02-25T06:25:38.983Z,0.25
2019-02-25T06:28:28.092Z,0.26
2019-02-25T06:31:16.679Z,0.25
2019-02-25T06:34:05.529Z,0.29
2019-02-25T06:36:54.320Z,0.33
2019-02-25T06:39:43.135Z,0.34
2019-02-25T06:42:31.930Z,0.37
2019-02-25T06:45:20.644Z,0.37
2019-02-25T06:48:09.528Z,0.34
2019-02-25T06:50:58.613Z,0.39
2019-02-25T06:53:47.570Z,0.42
2019-02-25T06:56:36.494Z,0.49
2019-02-25T06:59:25.520Z,0.56
2019-02-25T07:02:13.664Z,0.63
2019-02-25T07:05:12.355Z,0.70
2019-02-25T07:08:06.599Z,0.76
2019-02-25T07:11:13.855Z,0.82
2019-02-25T07:14:07.955Z,0.89
2019-02-25T07:17:33.705Z,0.99
2019-02-25T07:20:42.708Z,1.06
2019-02-25T07:23:56.867Z,1.14
2019-02-25T07:26:55.156Z,1.24
2019-02-25T07:30:08.604Z,1.32
2019-02-25T07:33:15.849Z,1.39
2019-02-25T07:36:21.746Z,1.44
2019-02-25T07:39:25.173Z,1.55
2019-02-25T07:42:33.329Z,1.68
2019-02-25T07:45:56.344Z,1.77
2019-02-25T07:49:02.866Z,1.85
2019-02-25T07:52:28.785Z,1.99
2019-02-25T07:55:32.715Z,2.08
2019-02-25T07:58:26.452Z,2.23
2019-02-25T08:01:25.475Z,2.37
2019-02-25T08:04:35.512Z,2.48
2019-02-25T08:07:42.485Z,2.63
2019-02-25T08:10:37.499Z,2.75
2019-02-25T08:13:48.432Z,2.87
2019-02-25T08:17:01.424Z,3.01
2019-02-25T08:20:14.850Z,3.14
2019-02-25T08:23:22.766Z,3.29
2019-02-25T08:26:29.729Z,3.47
2019-02-25T08:29:40.589Z,3.59
2019-02-25T08:32:43.820Z,3.75
2019-02-25T08:36:37.015Z,3.87
2019-02-25T08:39:33.504Z,3.99
2019-02-25T08:42:45.315Z,4.18
2019-02-25T08:45:45.295Z,4.33
2019-02-25T08:48:37.664Z,4.50
2019-02-25T08:51:26.301Z,4.67
2019-02-25T08:54:14.360Z,4.79
2019-02-25T08:57:03.458Z,4.92
2019-02-25T08:59:52.221Z,5.03
2019-02-25T09:02:41.194Z,5.15
2019-02-25T09:05:29.429Z,5.28
2019-02-25T09:08:17.537Z,5.44
2019-02-25T09:11:13.904Z,5.56
2019-02-25T09:13:56.097Z,5.74
2019-02-25T09:16:44.754Z,5.88
2019-02-25T09:19:33.247Z,6.01
2019-02-25T09:22:21.914Z,6.11
2019-02-25T09:25:10.510Z,6.22
2019-02-25T09:27:58.586Z,6.32
2019-02-25T09:30:47.336Z,6.48
2019-02-25T09:33:36.513Z,6.65
2019-02-25T09:36:25.728Z,6.76
2019-02-25T09:39:16.677Z,6.88
2019-02-25T09:42:04.767Z,7.04
2019-02-25T09:44:53.347Z,7.25
2019-02-25T09:47:41.959Z,7.38
2019-02-25T09:50:31.618Z,7.47
2019-02-25T09:53:19.731Z,7.57
2019-02-25T09:56:08.960Z,7.75
2019-02-25T09:58:57.631Z,7.90
2019-02-25T10:01:46.823Z,8.06
2019-02-25T10:04:36.132Z,8.25
2019-02-25T10:07:24.417Z,8.41
2019-02-25T10:10:13.857Z,8.50
2019-02-25T10:13:02.631Z,8.69
2019-02-25T10:15:50.861Z,8.84
2019-02-25T10:18:39.796Z,8.99
2019-02-25T10:21:28.176Z,9.12
2019-02-25T10:24:16.778Z,9.27
2019-02-25T10:27:05.034Z,9.41
2019-02-25T10:29:53.656Z,9.56
2019-02-25T10:32:42.567Z,9.72
2019-02-25T10:35:31.418Z,9.80
2019-02-25T10:38:21.617Z,9.96
2019-02-25T10:41:09.836Z,10.09
2019-02-25T10:44:00.251Z,10.22
2019-02-25T10:46:49.627Z,10.34
2019-02-25T10:49:38.492Z,10.50
2019-02-25T10:52:27.107Z,10.66
2019-02-25T10:55:23.136Z,10.80
2019-02-25T10:58:11.393Z,10.90
2019-02-25T11:01:00.228Z,11.01
2019-02-25T11:03:49.971Z,11.14
2019-02-25T11:06:38.909Z,11.14
2019-02-25T11:09:50.377Z,11.32
2019-02-25T11:12:40.492Z,11.42
2019-02-25T11:15:31.531Z,11.61
2019-02-25T11:18:22.455Z,11.72
2019-02-25T11:21:10.771Z,11.75
2019-02-25T11:24:00.085Z,11.87
2019-02-25T11:26:48.988Z,11.98
2019-02-25T11:29:39.845Z,12.19
2019-02-25T11:32:28.156Z,12.32
2019-02-25T11:35:17.404Z,12.44
2019-02-25T11:38:05.788Z,12.39
2019-02-25T11:40:54.559Z,12.59
2019-02-25T11:43:45.363Z,12.69
2019-02-25T11:46:33.138Z,12.93
2019-02-25T11:49:21.808Z,13.01
2019-02-25T11:52:11.042Z,13.14
2019-02-25T11:54:59.829Z,13.27
2019-02-25T11:57:48.854Z,13.50
2019-02-25T12:00:37.406Z,13.67
2019-02-25T12:03:26.160Z,13.73
2019-02-25T12:06:14.382Z,13.77
2019-02-25T12:09:02.392Z,14.05
2019-02-25T12:11:50.536Z,14.32
2019-02-25T12:14:39.798Z,14.60
2019-02-25T12:17:28.229Z,14.79
2019-02-25T12:20:17.261Z,14.99
2019-02-25T12:23:06.096Z,15.19
2019-02-25T12:25:54.793Z,15.12
2019-02-25T12:28:43.913Z,15.13
2019-02-25T12:31:32.136Z,15.35
2019-02-25T12:34:20.769Z,15.46
2019-02-25T12:37:09.075Z,15.43
2019-02-25T12:39:57.403Z,15.53
2019-02-25T12:42:46.508Z,15.44
2019-02-25T12:45:35.263Z,15.60
2019-02-25T12:48:24.428Z,15.82
2019-02-25T12:51:13.345Z,15.82
2019-02-25T12:54:01.448Z,15.88
2019-02-25T12:56:49.890Z,15.95
2019-02-25T12:59:38.335Z,16.08
2019-02-25T13:02:27.196Z,16.23
2019-02-25T13:05:18.016Z,16.35
2019-02-25T13:08:07.130Z,16.54
2019-02-25T13:10:55.852Z,16.54
2019-02-25T13:13:44.787Z,16.71
2019-02-25T13:16:33.499Z,16.81
2019-02-25T13:19:22.343Z,17.01
2019-02-25T13:22:10.600Z,17.22
2019-02-25T13:25:00.714Z,17.41
2019-02-25T13:27:51.824Z,17.46
2019-02-25T13:30:39.841Z,17.63
2019-02-25T13:33:28.906Z,17.75
2019-02-25T13:36:17.985Z,17.87
2019-02-25T13:39:08.307Z,18.10
2019-02-25T13:41:56.723Z,18.27
2019-02-25T13:44:45.256Z,18.37
2019-02-25T13:47:34.089Z,18.20
2019-02-25T13:50:23.157Z,18.44
2019-02-25T13:53:11.652Z,18.52
2019-02-25T13:56:01.149Z,18.86
2019-02-25T13:58:49.879Z,18.96
2019-02-25T14:01:38.567Z,19.02
2019-02-25T14:04:27.782Z,19.05
2019-02-25T14:07:16.333Z,19.12
2019-02-25T14:10:07.838Z,18.90
2019-02-25T14:12:56.199Z,18.79
2019-02-25T14:15:44.951Z,18.44
2019-02-25T14:18:33.948Z,17.94
2019-02-25T14:21:22.522Z,17.75
2019-02-25T14:24:11.585Z,17.34
2019-02-25T14:26:59.707Z,16.80
2019-02-25T14:29:48.821Z,16.59
2019-02-25T14:32:37.701Z,16.43
2019-02-25T14:35:28.525Z,16.18
2019-02-25T14:38:18.386Z,16.02
2019-02-25T14:41:07.231Z,15.80
2019-02-25T14:43:58.752Z,15.64
2019-02-25T14:46:47.219Z,15.51
2019-02-25T14:49:37.742Z,15.51
2019-02-25T14:52:26.844Z,15.52
2019-02-25T14:55:16.445Z,15.53
2019-02-25T14:58:07.533Z,15.59
2019-02-25T15:00:56.268Z,15.34
2019-02-25T15:03:44.701Z,15.42
2019-02-25T15:06:34.755Z,15.22
2019-02-25T15:09:23.222Z,15.25
2019-02-25T15:12:12.353Z,15.17
2019-02-25T15:15:02.691Z,15.13
2019-02-25T15:17:52.762Z,15.15
2019-02-25T15:20:41.631Z,15.15
2019-02-25T15:23:30.040Z,15.19
2019-02-25T15:26:19.871Z,15.24
2019-02-25T15:29:09.338Z,15.31
2019-02-25T15:31:59.316Z,15.20
2019-02-25T15:34:50.756Z,15.25
2019-02-25T15:37:40.628Z,15.29
2019-02-25T15:40:29.537Z,15.30
2019-02-25T15:43:20.345Z,15.36
2019-02-25T15:46:08.147Z,15.46
2019-02-25T15:48:56.529Z,15.58
2019-02-25T15:51:51.369Z,15.52
2019-02-25T15:54:41.406Z,15.44
2019-02-25T15:57:30.763Z,15.24
2019-02-25T16:00:21.264Z,15.08
2019-02-25T16:03:11.675Z,14.90
2019-02-25T16:06:03.944Z,14.72
2019-02-25T16:08:52.139Z,14.54
2019-02-25T16:11:43.997Z,14.41
2019-02-25T16:14:32.453Z,14.27
2019-02-25T16:17:22.332Z,14.18
2019-02-25T16:20:11.603Z,14.05
2019-02-25T16:23:00.478Z,13.94
2019-02-25T16:25:52.636Z,13.77
2019-02-25T16:28:41.567Z,13.59
2019-02-25T16:31:32.690Z,13.51
2019-02-25T16:34:20.904Z,13.39
2019-02-25T16:37:12.039Z,13.24
2019-02-25T16:40:03.075Z,13.18
2019-02-25T16:42:50.962Z,13.06
2019-02-25T16:45:41.872Z,12.98
2019-02-25T16:48:32.065Z,12.90
2019-02-25T16:51:20.214Z,12.77
2019-02-25T16:54:11.001Z,12.62
2019-02-25T16:56:59.249Z,12.50
2019-02-25T16:59:48.481Z,12.30
2019-02-25T17:02:38.467Z,12.22
2019-02-25T17:05:27.219Z,12.02
2019-02-25T17:08:19.090Z,11.89
2019-02-25T17:11:08.175Z,11.72
2019-02-25T17:13:57.736Z,11.58
2019-02-25T17:16:46.838Z,11.44
2019-02-25T17:19:35.791Z,11.31
2019-02-25T17:22:25.263Z,11.22
2019-02-25T17:25:13.829Z,11.07
2019-02-25T17:28:02.851Z,10.95
2019-02-25T17:30:52.731Z,10.79
2019-02-25T17:33:41.666Z,10.68
2019-02-25T17:36:30.018Z,10.54
2019-02-25T17:39:18.811Z,10.44
2019-02-25T17:42:09.258Z,10.36
2019-02-25T17:44:59.881Z,10.37
2019-02-25T17:47:48.631Z,10.28
2019-02-25T17:50:37.578Z,10.20
2019-02-25T17:53:28.381Z,10.09
2019-02-25T17:56:18.632Z,10.02
2019-02-25T17:59:09.646Z,9.99
2019-02-25T18:01:58.404Z,9.94
2019-02-25T18:04:47.471Z,9.85
2019-02-25T18:07:37.740Z,9.80
2019-02-25T18:10:28.972Z,9.67
2019-02-25T18:13:17.479Z,9.63
2019-02-25T18:16:07.988Z,9.60
2019-02-25T18:18:56.875Z,9.40
2019-02-25T18:21:46.309Z,9.28
2019-02-25T18:24:35.544Z,9.26
2019-02-25T18:27:24.313Z,9.27
2019-02-25T18:30:13.965Z,9.18
2019-02-25T18:33:04.638Z,9.12
2019-02-25T18:35:52.237Z,9.04
2019-02-25T18:38:40.968Z,8.98
2019-02-25T18:41:33.614Z,8.82
2019-02-25T18:44:19.863Z,8.78
2019-02-25T18:47:08.591Z,8.74
2019-02-25T18:49:58.800Z,8.71
2019-02-25T18:52:48.146Z,8.73
2019-02-25T18:55:37.641Z,8.65
2019-02-25T18:58:26.476Z,8.58
2019-02-25T19:01:17.560Z,8.50
2019-02-25T19:04:08.054Z,8.40
2019-02-25T19:06:59.788Z,8.35
2019-02-25T19:09:49.344Z,8.33
2019-02-25T19:12:38.772Z,8.27
2019-02-25T19:15:27.216Z,8.20
2019-02-25T19:18:17.734Z,8.12
2019-02-25T19:21:08.705Z,8.04
2019-02-25T19:23:57.540Z,8.07
2019-02-25T19:26:47.407Z,7.98
2019-02-25T19:29:37.241Z,7.91
2019-02-25T19:32:25.803Z,7.84
2019-02-25T19:35:15.326Z,7.78
2019-02-25T19:38:05.814Z,7.67
2019-02-25T19:40:55.941Z,7.61
2019-02-25T19:43:45.256Z,7.58
2019-02-25T19:46:34.364Z,7.57
2019-02-25T19:49:23.418Z,7.47
2019-02-25T19:52:12.495Z,7.38
2019-02-25T19:55:05.626Z,7.29
2019-02-25T19:57:52.553Z,7.26
2019-02-25T20:00:41.544Z,7.19
2019-02-25T20:03:32.884Z,7.07
2019-02-25T20:06:21.565Z,7.02
2019-02-25T20:09:12.914Z,6.98
2019-02-25T20:12:02.551Z,6.96
2019-02-25T20:14:51.400Z,6.89
2019-02-25T20:17:39.608Z,6.90
2019-02-25T20:20:36.281Z,6.82
2019-02-25T20:23:26.570Z,6.77
2019-02-25T20:26:15.525Z,6.76
2019-02-25T20:29:06.354Z,6.68
2019-02-25T20:31:56.182Z,6.65
2019-02-25T20:34:46.334Z,6.64
2019-02-25T20:37:35.966Z,6.68
2019-02-25T20:40:28.232Z,6.72
2019-02-25T20:43:19.345Z,6.60
2019-02-25T20:46:08.627Z,6.54
2019-02-25T20:48:57.778Z,6.42
2019-02-25T20:51:48.370Z,6.34
2019-02-25T20:54:40.707Z,6.30
2019-02-25T20:57:29.538Z,6.22
2019-02-25T21:00:20.297Z,6.20
2019-02-25T21:03:12.094Z,6.13
2019-02-25T21:05:59.800Z,6.01
2019-02-25T21:08:48.755Z,5.96
2019-02-25T21:11:37.898Z,5.94
2019-02-25T21:14:29.513Z,5.90
2019-02-25T21:17:17.051Z,5.87
2019-02-25T21:20:08.353Z,5.86
2019-02-25T21:23:02.140Z,5.90
2019-02-25T21:25:47.883Z,5.87
2019-02-25T21:28:38.053Z,5.86
2019-02-25T21:31:26.620Z,5.86
2019-02-25T21:34:17.761Z,5.74
2019-02-25T21:37:05.258Z,5.62
2019-02-25T21:39:53.980Z,5.54
2019-02-25T21:42:44.353Z,5.52
2019-02-25T21:45:32.826Z,5.49
2019-02-25T21:48:25.055Z,5.47
2019-02-25T21:51:12.355Z,5.47
2019-02-25T21:54:04.438Z,5.42
2019-02-25T21:56:52.378Z,5.37
2019-02-25T21:59:41.476Z,5.26
2019-02-25T22:02:30.780Z,5.21
2019-02-25T22:05:21.358Z,5.22
2019-02-25T22:08:09.613Z,5.20
2019-02-25T22:11:11.742Z,5.13
2019-02-25T22:13:49.000Z,5.07
2019-02-25T22:16:44.119Z,5.04
2019-02-25T22:19:28.122Z,5.00
2019-02-25T22:22:16.820Z,4.94
2019-02-25T22:25:06.629Z,4.90
2019-02-25T22:27:56.206Z,4.86
2019-02-25T22:30:47.385Z,4.82
2019-02-25T22:33:35.702Z,4.84
2019-02-25T22:36:24.510Z,4.84
2019-02-25T22:39:13.199Z,4.81
2019-02-25T22:42:03.568Z,4.72
2019-02-25T22:44:54.030Z,4.59
2019-02-25T22:47:42.160Z,4.58
2019-02-25T22:50:31.216Z,4.58
2019-02-25T22:53:21.178Z,4.56
2019-02-25T22:56:13.408Z,4.42
2019-02-25T22:59:02.694Z,4.42
2019-02-25T23:01:52.617Z,4.46
2019-02-25T23:04:40.984Z,4.45
2019-02-25T23:07:30.879Z,4.41
2019-02-25T23:10:21.839Z,4.39
2019-02-25T23:13:10.211Z,4.35
2019-02-25T23:15:59.036Z,4.34
2019-02-25T23:18:48.038Z,4.32
2019-02-25T23:21:38.339Z,4.29
2019-02-25T23:24:30.021Z,4.22
2019-02-25T23:27:17.792Z,4.17
2019-02-25T23:30:08.626Z,4.16
2019-02-25T23:32:56.864Z,4.16
2019-02-25T23:35:46.963Z,4.15
2019-02-25T23:38:36.601Z,4.12
2019-02-25T23:41:25.367Z,4.07
2019-02-25T23:44:15.143Z,4.01
2019-02-25T23:47:04.859Z,3.98
2019-02-25T23:49:53.693Z,3.93
2019-02-25T23:52:42.197Z,3.90
2019-02-25T23:55:30.908Z,3.91
2019-02-25T23:58:20.154Z,3.91
